createdAt,value
2019-01-21T00:01:11.661Z,6.20
2019-01-21T00:03:43.097Z,6.30
2019-01-21T00:06:14.392Z,6.30
2019-01-21T00:08:45.723Z,6.40
2019-01-21T00:11:18.296Z,6.30
2019-01-21T00:13:49.739Z,6.10
2019-01-21T00:16:21.223Z,6.00
2019-01-21T00:18:52.710Z,6.10
2019-01-21T00:21:24.119Z,6.10
2019-01-21T00:23:55.561Z,6.20
2019-01-21T00:26:26.783Z,6.40
2019-01-21T00:28:58.127Z,6.60
2019-01-21T00:31:29.800Z,6.70
2019-01-21T00:34:01.167Z,6.70
2019-01-21T00:36:32.511Z,6.60
2019-01-21T00:39:06.056Z,6.30
2019-01-21T00:41:37.439Z,6.20
2019-01-21T00:44:08.833Z,6.20
2019-01-21T00:46:40.216Z,6.10
2019-01-21T00:49:11.429Z,6.10
2019-01-21T00:51:42.803Z,6.10
2019-01-21T00:54:15.166Z,6.10
2019-01-21T00:56:46.548Z,6.10
2019-01-21T00:59:17.652Z,6.10
2019-01-21T01:01:49.025Z,6.30
2019-01-21T01:04:20.998Z,6.40
2019-01-21T01:06:52.457Z,6.70
2019-01-21T01:09:23.798Z,6.80
2019-01-21T01:11:55.134Z,6.80
2019-01-21T01:14:26.488Z,6.60
2019-01-21T01:16:58.136Z,6.60
2019-01-21T01:19:29.374Z,6.50
2019-01-21T01:22:00.665Z,6.40
2019-01-21T01:24:32.075Z,6.40
2019-01-21T01:27:04.497Z,6.40
2019-01-21T01:29:35.701Z,6.30
2019-01-21T01:32:06.927Z,6.20
2019-01-21T01:34:38.205Z,6.20
2019-01-21T01:37:10.447Z,6.10
2019-01-21T01:39:41.675Z,6.10
2019-01-21T01:42:13.021Z,6.10
2019-01-21T01:44:44.344Z,6.10
2019-01-21T01:47:15.572Z,6.10
2019-01-21T01:49:46.862Z,6.20
2019-01-21T01:52:18.734Z,6.10
2019-01-21T01:54:53.548Z,6.10
2019-01-21T01:57:24.699Z,6.10
2019-01-21T01:59:55.837Z,6.00
2019-01-21T02:02:27.596Z,6.00
2019-01-21T02:04:59.044Z,6.00
2019-01-21T02:07:30.316Z,6.10
2019-01-21T02:10:01.703Z,6.20
2019-01-21T02:12:33.945Z,6.20
2019-01-21T02:15:07.207Z,6.20
2019-01-21T02:17:38.850Z,6.10
2019-01-21T02:20:12.242Z,6.10
2019-01-21T02:22:50.069Z,6.30
2019-01-21T02:25:32.022Z,6.30
2019-01-21T02:28:37.239Z,6.40
2019-01-21T02:31:44.012Z,6.40
2019-01-21T02:34:51.715Z,6.30
2019-01-21T02:38:05.857Z,6.10
2019-01-21T02:41:18.103Z,6.00
2019-01-21T02:44:27.999Z,5.80
2019-01-21T02:47:11.586Z,5.70
2019-01-21T02:50:07.202Z,5.70
2019-01-21T02:53:32.021Z,5.60
2019-01-21T02:56:53.396Z,5.60
2019-01-21T02:59:51.765Z,5.60
2019-01-21T03:03:03.693Z,5.50
2019-01-21T03:06:00.078Z,5.50
2019-01-21T03:09:10.061Z,5.50
2019-01-21T03:12:17.469Z,5.60
2019-01-21T03:15:21.689Z,5.50
2019-01-21T03:18:28.490Z,5.40
2019-01-21T03:21:34.830Z,5.40
2019-01-21T03:24:38.188Z,5.40
2019-01-21T03:27:42.886Z,5.40
2019-01-21T03:30:55.325Z,5.50
2019-01-21T03:34:01.490Z,5.60
2019-01-21T03:37:12.543Z,5.80
2019-01-21T03:40:25.163Z,5.80
2019-01-21T03:43:30.625Z,5.80
2019-01-21T03:46:36.179Z,5.70
2019-01-21T03:49:26.812Z,5.80
2019-01-21T03:52:41.712Z,5.80
2019-01-21T03:55:15.950Z,6.10
2019-01-21T03:58:20.491Z,6.50
2019-01-21T04:01:47.459Z,6.70
2019-01-21T04:05:01.172Z,6.80
2019-01-21T04:07:47.000Z,6.80
2019-01-21T04:11:06.187Z,6.60
2019-01-21T04:14:18.140Z,6.30
2019-01-21T04:17:29.437Z,6.20
2019-01-21T04:20:50.433Z,6.20
2019-01-21T04:23:50.822Z,6.20
2019-01-21T04:27:01.409Z,6.40
2019-01-21T04:30:03.190Z,6.50
2019-01-21T04:33:10.827Z,6.70
2019-01-21T04:35:52.609Z,6.70
2019-01-21T04:38:55.505Z,6.70
2019-01-21T04:41:55.546Z,6.90
2019-01-21T04:44:50.162Z,6.90
2019-01-21T04:47:51.864Z,7.10
2019-01-21T04:50:51.960Z,7.20
2019-01-21T04:53:58.307Z,7.10
2019-01-21T04:57:17.068Z,7.00
2019-01-21T05:00:35.996Z,6.90
2019-01-21T05:03:50.120Z,6.90
2019-01-21T05:06:50.888Z,6.90
2019-01-21T05:09:54.463Z,6.90
2019-01-21T05:13:08.252Z,7.00
2019-01-21T05:16:15.689Z,7.00
2019-01-21T05:19:28.634Z,7.00
2019-01-21T05:22:39.672Z,7.00
2019-01-21T05:25:48.535Z,7.10
2019-01-21T05:29:12.805Z,7.20
2019-01-21T05:32:10.191Z,7.40
2019-01-21T05:35:22.579Z,7.30
2019-01-21T05:38:23.063Z,7.30
2019-01-21T05:41:29.796Z,7.30
2019-01-21T05:44:38.972Z,7.30
2019-01-21T05:47:55.957Z,7.30
2019-01-21T05:51:23.723Z,7.30
2019-01-21T05:54:31.034Z,7.40
2019-01-21T05:57:42.524Z,7.30
2019-01-21T06:01:03.886Z,7.40
2019-01-21T06:04:20.259Z,7.40
2019-01-21T06:07:29.162Z,7.40
2019-01-21T06:10:47.155Z,7.50
2019-01-21T06:13:50.188Z,7.60
2019-01-21T06:16:57.149Z,7.80
2019-01-21T06:20:24.359Z,7.90
2019-01-21T06:23:26.081Z,8.00
2019-01-21T06:26:33.861Z,8.10
2019-01-21T06:29:42.820Z,8.20
2019-01-21T06:33:06.836Z,8.40
2019-01-21T06:36:18.595Z,8.50
2019-01-21T06:39:36.326Z,8.60
2019-01-21T06:42:51.936Z,8.70
2019-01-21T06:45:55.361Z,8.80
2019-01-21T06:49:37.760Z,8.90
2019-01-21T06:53:01.655Z,9.00
2019-01-21T06:56:07.880Z,9.30
2019-01-21T06:59:28.670Z,9.40
2019-01-21T07:02:55.690Z,9.50
2019-01-21T07:06:02.207Z,9.60
2019-01-21T07:08:56.309Z,9.60
2019-01-21T07:12:01.609Z,9.60
2019-01-21T07:15:00.996Z,9.80
2019-01-21T07:18:21.693Z,9.80
2019-01-21T07:21:31.950Z,9.90
2019-01-21T07:24:37.808Z,10.00
2019-01-21T07:27:52.540Z,10.00
2019-01-21T07:31:14.266Z,10.10
2019-01-21T07:34:40.163Z,10.20
2019-01-21T07:37:39.438Z,10.40
2019-01-21T07:40:45.487Z,10.40
2019-01-21T07:43:41.790Z,10.50
2019-01-21T07:46:52.617Z,10.70
2019-01-21T07:50:10.821Z,10.80
2019-01-21T07:53:13.178Z,10.90
2019-01-21T07:56:23.876Z,11.00
2019-01-21T07:59:22.871Z,11.10
2019-01-21T08:02:33.029Z,11.20
2019-01-21T08:06:06.469Z,11.20
2019-01-21T08:08:57.374Z,11.40
2019-01-21T08:12:23.056Z,11.40
2019-01-21T08:15:26.129Z,11.30
2019-01-21T08:18:27.527Z,11.70
2019-01-21T08:21:46.280Z,12.00
2019-01-21T08:25:01.044Z,12.10
2019-01-21T08:28:14.631Z,11.80
2019-01-21T08:31:09.166Z,11.90
2019-01-21T08:34:08.618Z,11.90
2019-01-21T08:37:06.972Z,11.90
2019-01-21T08:39:52.088Z,11.90
2019-01-21T08:42:49.303Z,11.80
2019-01-21T08:46:11.373Z,12.00
2019-01-21T08:49:08.637Z,12.20
2019-01-21T08:52:20.664Z,12.10
2019-01-21T08:55:50.962Z,12.00
2019-01-21T08:59:11.606Z,11.70
2019-01-21T09:01:56.120Z,11.90
2019-01-21T09:05:25.944Z,11.90
2019-01-21T09:08:59.289Z,12.20
2019-01-21T09:12:08.157Z,12.50
2019-01-21T09:15:22.792Z,12.50
2019-01-21T09:18:23.783Z,12.50
2019-01-21T09:21:13.236Z,12.50
2019-01-21T09:24:08.928Z,12.40
2019-01-21T09:26:50.211Z,12.40
2019-01-21T09:29:51.274Z,12.40
2019-01-21T09:33:01.411Z,12.40
2019-01-21T09:36:01.868Z,12.40
2019-01-21T09:39:10.494Z,12.20
2019-01-21T09:42:31.752Z,12.30
2019-01-21T09:45:27.955Z,12.30
2019-01-21T09:47:57.192Z,12.30
2019-01-21T09:50:28.634Z,12.40
2019-01-21T09:53:00.395Z,12.40
2019-01-21T09:55:31.689Z,12.40
2019-01-21T09:58:12.331Z,12.50
2019-01-21T10:00:43.703Z,12.50
2019-01-21T10:03:15.314Z,12.40
2019-01-21T10:05:50.364Z,12.40
2019-01-21T10:08:45.069Z,12.40
2019-01-21T10:12:06.002Z,12.40
2019-01-21T10:15:08.165Z,12.40
2019-01-21T10:18:15.887Z,12.50
2019-01-21T10:21:18.593Z,12.60
2019-01-21T10:24:27.899Z,12.50
2019-01-21T10:27:45.778Z,12.60
2019-01-21T10:30:44.938Z,12.70
2019-01-21T10:34:04.963Z,12.70
2019-01-21T10:37:04.369Z,12.60
2019-01-21T10:40:07.996Z,12.90
2019-01-21T10:43:22.044Z,13.00
2019-01-21T10:46:21.866Z,13.10
2019-01-21T10:49:45.583Z,13.20
2019-01-21T10:52:53.389Z,13.30
2019-01-21T10:55:49.371Z,13.40
2019-01-21T10:58:36.648Z,13.30
2019-01-21T11:01:36.941Z,13.30
2019-01-21T11:04:32.709Z,13.40
2019-01-21T11:07:33.740Z,13.50
2019-01-21T11:10:19.179Z,13.40
2019-01-21T11:13:20.273Z,13.40
2019-01-21T11:16:04.485Z,13.30
2019-01-21T11:19:01.499Z,13.30
2019-01-21T11:21:51.002Z,13.30
2019-01-21T11:25:14.381Z,13.20
2019-01-21T11:28:22.406Z,13.20
2019-01-21T11:31:36.197Z,13.10
2019-01-21T11:34:50.878Z,13.00
2019-01-21T11:37:50.635Z,12.90
2019-01-21T11:40:46.777Z,12.80
2019-01-21T11:44:02.264Z,12.80
2019-01-21T11:47:12.721Z,12.80
2019-01-21T11:50:18.065Z,12.70
2019-01-21T11:53:45.230Z,12.50
2019-01-21T11:56:59.685Z,12.50
2019-01-21T11:59:50.291Z,12.50
2019-01-21T12:02:47.073Z,12.50
2019-01-21T12:05:32.902Z,12.50
2019-01-21T12:08:38.051Z,12.50
2019-01-21T12:11:42.855Z,12.40
2019-01-21T12:14:50.964Z,12.50
2019-01-21T12:18:05.982Z,12.60
2019-01-21T12:21:27.767Z,12.70
2019-01-21T12:24:30.464Z,12.70
2019-01-21T12:27:53.466Z,12.80
2019-01-21T12:31:13.544Z,12.90
2019-01-21T12:34:00.062Z,13.00
2019-01-21T12:36:57.168Z,13.00
2019-01-21T12:40:27.515Z,13.00
2019-01-21T12:43:20.449Z,13.00
2019-01-21T12:46:22.753Z,13.10
2019-01-21T12:49:44.170Z,13.20
2019-01-21T12:52:25.110Z,13.10
2019-01-21T12:55:39.911Z,13.20
2019-01-21T12:58:41.688Z,13.20
2019-01-21T13:01:42.752Z,13.20
2019-01-21T13:04:40.395Z,13.10
2019-01-21T13:07:32.297Z,13.00
2019-01-21T13:10:25.535Z,13.00
2019-01-21T13:13:55.762Z,12.90
2019-01-21T13:16:48.195Z,12.80
2019-01-21T13:20:21.117Z,12.80
2019-01-21T13:23:28.731Z,12.70
2019-01-21T13:26:30.015Z,12.60
2019-01-21T13:29:56.839Z,12.60
2019-01-21T13:33:23.977Z,12.50
2019-01-21T13:36:05.815Z,12.50
2019-01-21T13:39:06.684Z,12.40
2019-01-21T13:41:49.326Z,12.30
2019-01-21T13:44:57.157Z,12.30
2019-01-21T13:48:00.692Z,12.30
2019-01-21T13:51:08.438Z,12.20
2019-01-21T13:54:20.421Z,12.20
2019-01-21T13:57:16.965Z,12.20
2019-01-21T14:00:16.850Z,12.20
2019-01-21T14:03:02.133Z,12.10
2019-01-21T14:05:54.588Z,12.10
2019-01-21T14:08:38.385Z,12.10
2019-01-21T14:12:04.360Z,12.00
2019-01-21T14:14:51.099Z,12.00
2019-01-21T14:18:01.089Z,11.90
2019-01-21T14:21:11.162Z,11.90
2019-01-21T14:24:19.476Z,11.80
2019-01-21T14:27:40.046Z,11.90
2019-01-21T14:30:27.842Z,11.70
2019-01-21T14:34:29.906Z,11.70
2019-01-21T14:37:50.537Z,11.70
2019-01-21T14:48:55.005Z,11.40
2019-01-21T14:52:03.656Z,11.40
2019-01-21T14:55:07.873Z,11.30
2019-01-21T14:58:12.099Z,11.40
2019-01-21T15:01:13.217Z,11.40
2019-01-21T15:04:09.227Z,11.40
2019-01-21T15:07:04.868Z,11.40
2019-01-21T15:10:32.168Z,11.40
2019-01-21T15:13:24.759Z,11.40
2019-01-21T15:16:41.886Z,11.30
2019-01-21T15:19:31.304Z,11.30
2019-01-21T15:22:34.897Z,11.30
2019-01-21T15:25:49.299Z,11.30
2019-01-21T15:28:48.974Z,11.30
2019-01-21T15:31:44.748Z,11.30
2019-01-21T15:35:03.912Z,11.30
2019-01-21T15:38:04.410Z,11.20
2019-01-21T15:41:01.483Z,11.20
2019-01-21T15:43:52.054Z,11.20
2019-01-21T15:47:08.111Z,11.10
2019-01-21T15:49:47.232Z,11.10
2019-01-21T15:52:58.422Z,11.10
2019-01-21T15:56:01.230Z,11.00
2019-01-21T15:59:04.296Z,11.00
2019-01-21T16:01:51.528Z,11.00
2019-01-21T16:04:41.662Z,11.00
2019-01-21T16:07:28.321Z,11.00
2019-01-21T16:10:26.145Z,10.90
2019-01-21T16:13:21.557Z,10.90
2019-01-21T16:16:32.197Z,10.80
2019-01-21T16:19:26.916Z,10.80
2019-01-21T16:22:41.937Z,10.70
2019-01-21T16:25:26.182Z,10.80
2019-01-21T16:28:45.952Z,10.70
2019-01-21T16:31:47.252Z,10.70
2019-01-21T16:35:20.512Z,10.70
2019-01-21T16:38:13.256Z,10.60
2019-01-21T16:41:25.024Z,10.60
2019-01-21T16:43:56.528Z,10.60
2019-01-21T16:46:29.077Z,10.50
2019-01-21T16:49:12.392Z,10.50
2019-01-21T16:51:43.708Z,10.50
2019-01-21T16:54:15.110Z,10.50
2019-01-21T16:56:46.455Z,10.50
2019-01-21T16:59:17.823Z,10.40
2019-01-21T17:01:49.189Z,10.40
2019-01-21T17:04:20.629Z,10.40
2019-01-21T17:06:51.864Z,10.40
2019-01-21T17:09:23.171Z,10.40
2019-01-21T17:11:55.644Z,10.20
2019-01-21T17:14:27.250Z,10.20
2019-01-21T17:16:58.724Z,10.00
2019-01-21T17:19:30.143Z,10.20
2019-01-21T17:22:01.563Z,10.00
2019-01-21T17:24:32.928Z,9.90
2019-01-21T17:27:04.924Z,10.10
2019-01-21T17:29:36.200Z,10.20
2019-01-21T17:32:07.767Z,10.20
2019-01-21T17:34:39.125Z,10.30
2019-01-21T17:37:10.613Z,10.30
2019-01-21T17:39:42.001Z,10.20
2019-01-21T17:42:13.229Z,10.20
2019-01-21T17:44:44.454Z,10.20
2019-01-21T17:47:16.697Z,10.20
2019-01-21T17:49:48.010Z,10.20
2019-01-21T17:52:19.282Z,10.20
2019-01-21T17:54:50.672Z,10.10
2019-01-21T17:57:21.886Z,10.10
2019-01-21T17:59:53.488Z,10.10
2019-01-21T18:02:41.429Z,10.20
2019-01-21T18:05:14.501Z,10.20
2019-01-21T18:07:55.379Z,10.10
2019-01-21T18:10:39.906Z,10.10
2019-01-21T18:13:26.310Z,10.00
2019-01-21T18:15:59.301Z,9.90
2019-01-21T18:18:31.494Z,9.90
2019-01-21T18:21:02.869Z,9.90
2019-01-21T18:23:34.194Z,9.90
2019-01-21T18:26:05.728Z,9.90
2019-01-21T18:28:37.034Z,10.00
2019-01-21T18:31:08.393Z,9.90
2019-01-21T18:33:39.620Z,9.90
2019-01-21T18:36:11.022Z,9.90
2019-01-21T18:38:42.267Z,9.90
2019-01-21T18:41:13.779Z,10.00
2019-01-21T18:43:46.782Z,10.00
2019-01-21T18:46:18.543Z,10.00
2019-01-21T18:48:49.955Z,10.00
2019-01-21T18:51:21.392Z,10.00
2019-01-21T18:53:52.842Z,9.90
2019-01-21T18:56:24.243Z,10.00
2019-01-21T18:58:55.620Z,9.90
2019-01-21T19:01:26.885Z,10.00
2019-01-21T19:03:58.221Z,10.00
2019-01-21T19:06:29.489Z,10.00
2019-01-21T19:09:00.856Z,10.00
2019-01-21T19:11:32.591Z,10.00
2019-01-21T19:14:03.978Z,10.00
2019-01-21T19:16:38.730Z,10.00
2019-01-21T19:19:10.122Z,10.00
2019-01-21T19:21:41.386Z,10.00
2019-01-21T19:24:12.743Z,10.00
2019-01-21T19:26:44.014Z,10.00
2019-01-21T19:29:15.364Z,10.00
2019-01-21T19:31:46.543Z,10.00
2019-01-21T19:34:17.945Z,10.00
2019-01-21T19:36:49.155Z,10.00
2019-01-21T19:39:20.456Z,10.00
2019-01-21T19:41:51.773Z,10.00
2019-01-21T19:44:23.248Z,9.90
2019-01-21T19:46:54.469Z,9.80
2019-01-21T19:49:25.880Z,9.80
2019-01-21T19:52:00.463Z,9.80
2019-01-21T19:54:30.153Z,9.80
2019-01-21T19:57:01.488Z,9.70
2019-01-21T19:59:32.702Z,9.80
2019-01-21T20:02:03.949Z,9.80
2019-01-21T20:04:35.335Z,9.70
2019-01-21T20:07:06.641Z,9.80
2019-01-21T20:09:38.011Z,9.80
2019-01-21T20:12:09.264Z,9.80
2019-01-21T20:14:40.608Z,9.80
2019-01-21T20:17:13.840Z,9.70
2019-01-21T20:19:45.380Z,9.70
2019-01-21T20:22:16.763Z,9.70
2019-01-21T20:24:48.146Z,9.70
2019-01-21T20:27:19.442Z,9.80
2019-01-21T20:29:50.823Z,9.80
2019-01-21T20:32:22.071Z,9.70
2019-01-21T20:34:53.344Z,9.70
2019-01-21T20:37:24.620Z,9.70
2019-01-21T20:39:55.836Z,9.70
2019-01-21T20:42:27.145Z,9.60
2019-01-21T20:44:58.588Z,9.60
2019-01-21T20:47:30.870Z,9.60
2019-01-21T20:50:02.157Z,9.60
2019-01-21T20:52:33.356Z,9.60
2019-01-21T20:55:05.394Z,9.60
2019-01-21T20:57:36.918Z,9.60
2019-01-21T21:00:11.204Z,9.50
2019-01-21T21:02:43.837Z,9.50
2019-01-21T21:05:18.947Z,9.50
2019-01-21T21:07:50.459Z,9.50
2019-01-21T21:10:22.855Z,9.50
2019-01-21T21:12:54.397Z,9.40
2019-01-21T21:15:28.643Z,9.50
2019-01-21T21:18:00.016Z,9.50
2019-01-21T21:20:31.982Z,9.40
2019-01-21T21:23:03.310Z,9.40
2019-01-21T21:25:34.521Z,9.40
2019-01-21T21:28:06.436Z,9.40
2019-01-21T21:30:37.920Z,9.40
2019-01-21T21:33:09.926Z,9.40
2019-01-21T21:35:41.494Z,9.30
2019-01-21T21:38:12.964Z,9.30
2019-01-21T21:40:44.061Z,9.40
2019-01-21T21:43:15.354Z,9.40
2019-01-21T21:45:46.750Z,9.40
2019-01-21T21:48:18.173Z,9.30
2019-01-21T21:50:49.596Z,9.20
2019-01-21T21:53:20.629Z,9.20
2019-01-21T21:55:52.514Z,9.10
2019-01-21T21:58:23.981Z,9.00
2019-01-21T22:00:55.388Z,8.90
2019-01-21T22:03:26.606Z,8.90
2019-01-21T22:05:57.783Z,8.80
2019-01-21T22:08:29.064Z,8.90
2019-01-21T22:11:00.930Z,8.90
2019-01-21T22:13:32.058Z,8.80
2019-01-21T22:16:03.787Z,8.80
2019-01-21T22:18:35.212Z,8.90
2019-01-21T22:21:06.735Z,8.80
2019-01-21T22:23:37.942Z,8.90
2019-01-21T22:26:09.256Z,8.90
2019-01-21T22:28:41.752Z,8.90
2019-01-21T22:31:13.071Z,8.80
2019-01-21T22:33:45.374Z,8.80
2019-01-21T22:36:16.757Z,8.90
2019-01-21T22:38:48.313Z,8.80
2019-01-21T22:41:19.725Z,8.60
2019-01-21T22:43:51.146Z,8.50
2019-01-21T22:46:22.535Z,8.60
2019-01-21T22:48:53.990Z,8.50
2019-01-21T22:51:26.781Z,8.60
2019-01-21T22:53:58.430Z,8.60
2019-01-21T22:56:29.866Z,8.80
2019-01-21T22:59:01.091Z,8.90
2019-01-21T23:01:34.614Z,8.90
2019-01-21T23:04:06.258Z,8.90
2019-01-21T23:06:37.545Z,8.80
2019-01-21T23:09:10.202Z,8.70
2019-01-21T23:11:41.552Z,8.60
2019-01-21T23:14:13.000Z,8.60
2019-01-21T23:16:44.366Z,8.60
2019-01-21T23:19:15.800Z,8.50
2019-01-21T23:21:47.078Z,8.50
2019-01-21T23:24:19.770Z,8.50
2019-01-21T23:26:52.355Z,8.40
2019-01-21T23:29:23.603Z,8.40
2019-01-21T23:31:55.036Z,8.50
2019-01-21T23:34:27.782Z,8.40
2019-01-21T23:36:58.958Z,8.50
2019-01-21T23:39:30.231Z,8.70
2019-01-21T23:42:01.617Z,8.80
2019-01-21T23:44:33.382Z,8.90
2019-01-21T23:47:05.498Z,9.00
2019-01-21T23:49:36.744Z,9.10
2019-01-21T23:52:08.904Z,9.10
2019-01-21T23:54:40.144Z,9.10
2019-01-21T23:57:11.614Z,9.00
2019-01-21T23:59:44.363Z,9.10
